Currently 69°F in Fallbrook, California, USA
69°F
70°F / 68°F
calm
0.00"
Thursday, August 16, 2018 6:34 AM PDT

Fallbrook, California Weather Summary
Last 36 Hours

Temperature Winds Hourly Humidity Dewpoint
Time Report Norm Report Norm Max Gusts Precip. Rpt. Norm Rpt. Norm Pressure
1Thu 06:34 AM  69.1°F  63°F  calm  calm  none  0.00"  100%  98%  69°F  63°F  30.01"
Thu 06:00 AM  69.0°F  63°F  calm  calm  none  0.00"  100%  98%  69°F  63°F  29.99"
Thu 05:00 AM  68.4°F  64°F  calm  calm  none  0.00"  100%  98%  68°F  63°F  29.97"
3Thu 04:05 AM  68.1°F  64°F  calm  calm  none  ----  100%  98%  68°F  63°F  29.96"
Thu 04:00 AM  68.1°F  64°F  calm  calm  none  0.00"  100%  98%  68°F  63°F  29.96"
Thu 03:00 AM  68.4°F  64°F  calm  calm  none  0.00"  100%  98%  68°F  64°F  29.95"
Thu 02:00 AM  68.9°F  64°F  calm  calm  none  0.00"  100%  98%  69°F  64°F  29.95"
Thu 01:00 AM  69.4°F  65°F  calm  calm  none  0.00"  99%  97%  69°F  64°F  29.95"
2Thu 12:05 AM  69.9°F  65°F  calm  calm  none  ----  98%  97%  69°F  64°F  29.96"
Thu 12:00 AM  69.9°F  65°F  calm  calm  none  0.00"  98%  97%  69°F  64°F  29.96"
Wed 11:00 PM  70.2°F  65°F  calm  calm  none  0.00"  98%  96%  69°F  64°F  29.96"
Wed 10:00 PM  70.1°F  66°F  calm  calm  2 mph  0.00"  97%  94%  69°F  64°F  29.95"
Wed 09:00 PM  70.3°F  67°F  calm  calm  3 mph  0.00"  97%  92%  69°F  64°F  29.93"
Wed 08:00 PM  71.4°F  69°F  calm  1 mph  7 mph  0.00"  95%  86%  70°F  64°F  29.92"
Wed 07:00 PM  73.8°F  73°F  3 mph SW  3 mph  9 mph  0.00"  85%  76%  69°F  64°F  29.91"
Wed 06:00 PM  76.8°F  77°F  3 mph S  5 mph  10 mph  0.00"  78%  66%  69°F  64°F  29.88"
Wed 05:00 PM  79.6°F  80°F  6 mph S  5 mph  10 mph  0.00"  71%  59%  69°F  64°F  29.89"
Wed 04:00 PM  81.2°F  82°F  2 mph SW  5 mph  10 mph  0.00"  67%  55%  69°F  63°F  29.90"
Wed 03:00 PM  82.6°F  83°F  5 mph SW  6 mph  12 mph  0.00"  64%  53%  69°F  63°F  29.89"
Wed 02:00 PM  84.0°F  84°F  5 mph SW  6 mph  12 mph  0.00"  60%  52%  68°F  64°F  29.89"
Wed 01:00 PM  82.4°F  83°F  4 mph SW  5 mph  9 mph  0.00"  64%  53%  69°F  64°F  29.90"
Wed 12:00 PM  81.5°F  82°F  2 mph W  4 mph  8 mph  0.00"  67%  58%  69°F  65°F  29.91"
Wed 11:00 AM  80.5°F  78°F  4 mph SW  2 mph  8 mph  0.00"  71%  67%  70°F  66°F  29.92"
Wed 10:00 AM  76.7°F  73°F  2 mph SW  1 mph  5 mph  0.00"  78%  79%  69°F  66°F  29.93"
Wed 09:00 AM  71.5°F  69°F  2 mph SE  calm  5 mph  0.00"  93%  89%  69°F  65°F  29.94"
Wed 08:00 AM  69.5°F  66°F  calm  calm  none  0.00"  98%  95%  69°F  64°F  29.93"
Wed 07:00 AM  67.8°F  64°F  calm  calm  none  0.00"  100%  98%  68°F  63°F  29.92"
Wed 06:00 AM  67.4°F  64°F  calm  calm  none  0.00"  100%  98%  67°F  63°F  29.91"
Wed 05:00 AM  68.0°F  64°F  calm  calm  none  0.00"  99%  98%  68°F  63°F  29.89"
Wed 04:00 AM  68.7°F  64°F  calm  calm  none  0.00"  98%  98%  68°F  63°F  29.89"
Wed 03:00 AM  68.7°F  64°F  calm  calm  none  0.00"  98%  98%  68°F  64°F  29.89"
Wed 02:00 AM  68.9°F  64°F  calm  calm  none  0.00"  98%  98%  68°F  64°F  29.90"
Wed 01:00 AM  68.7°F  65°F  calm  calm  none  0.00"  99%  97%  68°F  64°F  29.91"
Wed 12:00 AM  68.7°F  65°F  calm  calm  none  0.00"  100%  96%  69°F  64°F  29.91"
Tue 11:00 PM  68.5°F  65°F  calm  calm  none  0.00"  100%  96%  68°F  64°F  29.90"
Tue 10:00 PM  68.4°F  66°F  calm  calm  none  0.00"  100%  94%  68°F  64°F  29.90"
Tue 09:00 PM  69.2°F  67°F  calm  calm  5 mph  0.00"  98%  92%  69°F  64°F  29.88"
Tue 08:00 PM  70.8°F  69°F  2 mph S  1 mph  7 mph  0.00"  95%  86%  69°F  64°F  29.86"
Tue 07:00 PM  73.6°F  73°F  2 mph SW  3 mph  7 mph  0.00"  83%  75%  68°F  64°F  29.84"

  1. Current weather data. No green row appears if the current weather data is also the high or low for the current day.
  2. High temperature for the current day.
  3. Low temperature for the current day.

The Fallbrook weather pages are a service of WeatherCurrents. Fallbrook, California is located in northern San Diego County, close to I15 and Camp Pendleton, and is home to ranches, avocado and citrus groves, and plant nurseries.
Copyright ©Thu Aug 16 06:35:16 PDT 2018  WeatherCurrents. All rights reserved. - Submit questions and comments - Privacy Policy

This page automatically refreshes every 10 minutes.